KVYS/VYS METAR and TAF weather

Enter ICAO airport designator
Station Type Date Time Source
KVYS METAR 2024/06/15 21:55 UTC NOAA

KVYS 152155Z AUTO 14004KT 10SM CLR 29/14 A3000 RMK AO2 T02890139


Station Type Date Time Source
KVYS Decoded METAR 2024/06/15 21:55 UTC NOAA

Peru, Illinois Valley Regional-Walter A Duncan Field Airport, IL, United States (KVYS) 41-21-07N 089-09-11W
Jun 15, 2024 - 05:55 PM EDT / 2024.06.15 2155 UTC
Wind: from the SE (140 degrees) at 5 MPH (4 KT):0
Visibility: 10 mile(s):0
Sky conditions: clear
Temperature: 84.0 F (28.9 C)
Dew Point: 57.0 F (13.9 C)
Relative Humidity: 39%
Pressure (altimeter): 30 in. Hg (1015 hPa)
ob: KVYS 152155Z AUTO 14004KT 10SM CLR 29/14 A3000 RMK AO2 T02890139
cycle: 22

Station Type Date Time Source
KVYS TAF UTC NOAA

Error!

Example: see airport list